Observations for NEWCASTLE, United Kingdom (EGNT)

EGNT 280520Z 09006KT 6000 -DZ SCT006 BKN014 11/11 Q1004 
EGNT 280450Z 08008KT 8000 -SHRA SCT007 BKN011 11/11 Q1004   
EGNT 280420Z 07005KT 9999 VCSH BKN040 12/11 Q1004   
EGNT 280350Z 08006KT 9999 BKN024 11/11 Q1004
EGNT 280320Z 07004KT 9999 BKN024 11/11 Q1004
EGNT 280250Z 08005KT 9999 BKN024 11/11 Q1005
EGNT 280220Z 04003KT 9000 -SHRA FEW015 BKN032 11/11 Q1005   
EGNT 280150Z 04003KT 9000 -SHRA FEW015 BKN032 11/11 Q1005   
EGNT 280120Z 03002KT 7000 -SHRA SCT008 BKN015 11/11 Q1005   
EGNT 280050Z 08002KT 9999 SCT009 BKN022 11/11 Q1006 
EGNT 280020Z 09002KT 9999 SCT020 BKN034 11/11 Q1006 
EGNT 272350Z VRB03KT 9999 BKN032 11/11 Q1006
EGNT 272320Z VRB02KT 9999 BKN032 11/11 Q1006
EGNT 272250Z VRB03KT 9999 FEW008 SCT017 BKN032 11/11 Q1006  
EGNT 272220Z 11005KT 080V150 9999 -SHRA FEW012 BKN033 11/11 Q1006   
EGNT 272150Z 12004KT 040V180 9999 -SHRA SCT025 BKN044 11/11 Q1006   
EGNT 272120Z VRB03KT 9999 -SHRA SCT025 BKN044 11/11 Q1006   
EGNT 272050Z VRB06KT 9999 -SHRA SCT030 BKN044 11/11 Q1006   
EGNT 272020Z 13005KT 050V220 9999 -RA FEW010 SCT021 BKN044 11/11 Q1007  
EGNT 271950Z 13004KT 060V240 9000 -RA SCT023 BKN045 11/11 Q1007 
EGNT 271920Z 12006KT 070V170 7000 -RA SCT012 BKN022 11/11 Q1007 
EGNT 271850Z 13006KT 030V180 7000 -RA SCT008 BKN012 11/11 Q1007 
EGNT 271820Z 13006KT 090V180 6000 -RA BKN006 11/11 Q1007
EGNT 271750Z 12006KT 060V180 6000 -RA BKN006 11/11 Q1007
EGNT 271720Z 12006KT 060V180 6000 -RA FEW005 BKN010 11/11 Q1007 
EGNT 271650Z 13005KT 030V180 5000 -RA BKN008 11/11 Q1007
EGNT 271620Z 13006KT 040V180 3500 -RA SCT007 BKN010 12/11 Q1007 
EGNT 271550Z 13007KT 060V210 3500 -RA SCT007 BKN010 11/10 Q1007 
EGNT 271520Z 13008KT 040V180 4000 -RA BKN011 12/10 Q1008
EGNT 271450Z 13008KT 070V180 9000 FEW012 BKN042 12/10 Q1008 
EGNT 271420Z 13008KT 060V190 3000 -RA BKN011 12/10 Q1008
EGNT 271350Z 13007KT 080V190 9999 FEW011 BKN032 12/11 Q1008 
EGNT 271320Z 13008KT 070V180 8000 SCT010 BKN027 12/10 Q1008 
EGNT 271250Z 14008KT 070V180 8000 SCT010 BKN030 12/10 Q1008 
EGNT 271220Z 13007KT 070V210 8000 -RA SCT010 BKN030 12/11 Q1009 
EGNT 271150Z 13008KT 060V170 8000 -RA SCT010 BKN030 12/11 Q1009 
EGNT 271120Z 13007KT 070V180 8000 -RA SCT010 BKN030 12/11 Q1009 
EGNT 271050Z 13006KT 080V190 8000 -RA SCT010 BKN030 12/10 Q1009 
EGNT 271020Z 13007KT 070V190 8000 -RA SCT010 BKN030 12/11 Q1009 
EGNT 270950Z 14007KT 060V180 9000 -RA FEW010 BKN038 12/11 Q1010 
EGNT 270920Z 14008KT 080V200 9000 -RA FEW010 BKN043 12/11 Q1010 
EGNT 270850Z 14008KT 040V180 9000 -RA FEW010 SCT049 12/11 Q1010 
EGNT 270820Z 13006KT 080V200 9000 -RA FEW010 SCT049 11/11 Q1010 
EGNT 270750Z 13004KT 070V220 9999 -RA FEW010 SCT049 12/11 Q1010 
EGNT 270720Z 13004KT 040V190 9999 -RA FEW025 SCT049 11/10 Q1011 
EGNT 270650Z 12005KT 060V200 9999 -RA FEW025 SCT049 11/10 Q1011 
EGNT 270620Z 13005KT 060V180 9999 -RA SCT049 11/10 Q1011
EGNT 270550Z 13004KT 090V190 9999 -SHRA SCT049 11/10 Q1011  
EGNT 270520Z VRB03KT 9999 -RA SCT049 11/10 Q1011